createdAt,value
2022-11-14T00:00:47.610Z,98353.44
2022-11-14T00:03:32.883Z,98349.16
2022-11-14T00:06:18.222Z,98353.56
2022-11-14T00:09:03.781Z,98346.47
2022-11-14T00:11:49.188Z,98347.25
2022-11-14T00:14:34.412Z,98345.38
2022-11-14T00:17:19.750Z,98345.31
2022-11-14T00:20:07.403Z,98340.94
2022-11-14T00:22:52.777Z,98343.53
2022-11-14T00:25:38.247Z,98339.06
2022-11-14T00:28:23.363Z,98333.97
2022-11-14T00:31:10.388Z,98328.66
2022-11-14T00:33:55.890Z,98331.22
2022-11-14T00:36:40.945Z,98323.25
2022-11-14T00:39:26.176Z,98318.06
2022-11-14T00:42:11.557Z,98310.22
2022-11-14T00:44:57.114Z,98315.41
2022-11-14T00:47:42.254Z,98300.44
2022-11-14T00:50:27.646Z,98303.06
2022-11-14T00:53:12.953Z,98309.16
2022-11-14T00:55:58.090Z,98305.63
2022-11-14T00:58:43.261Z,98301.13
2022-11-14T01:01:28.501Z,98303.13
2022-11-14T01:04:14.110Z,98297.09
2022-11-14T01:06:59.654Z,98297.63
2022-11-14T01:09:45.337Z,98291.84
2022-11-14T01:12:30.526Z,98297.97
2022-11-14T01:15:16.260Z,98296.16
2022-11-14T01:18:02.280Z,98287.50
2022-11-14T01:20:49.110Z,98282.19
2022-11-14T01:23:34.562Z,98276.09
2022-11-14T01:26:20.057Z,98277.81
2022-11-14T01:29:05.284Z,98264.63
2022-11-14T01:31:50.790Z,98265.31
2022-11-14T01:34:35.959Z,98264.44
2022-11-14T01:37:21.884Z,98267.78
2022-11-14T01:40:07.895Z,98267.06
2022-11-14T01:43:24.998Z,98262.69
2022-11-14T01:46:15.972Z,98267.03
2022-11-14T01:49:24.514Z,98263.78
2022-11-14T01:52:30.577Z,98256.84
2022-11-14T01:55:15.844Z,98255.41
2022-11-14T01:58:00.986Z,98254.38
2022-11-14T02:00:46.038Z,98248.03
2022-11-14T02:03:31.753Z,98251.44
2022-11-14T02:06:20.220Z,98246.16
2022-11-14T02:09:07.139Z,98242.72
2022-11-14T02:11:55.199Z,98236.00
2022-11-14T02:14:45.181Z,98233.31
2022-11-14T02:17:31.240Z,98225.38
2022-11-14T02:20:28.750Z,98226.25
2022-11-14T02:23:14.880Z,98226.94
2022-11-14T02:26:00.361Z,98222.44
2022-11-14T02:28:46.955Z,98215.34
2022-11-14T02:31:32.211Z,98206.63
2022-11-14T02:34:19.950Z,98197.97
2022-11-14T02:37:06.288Z,98196.16
2022-11-14T02:39:51.725Z,98195.19
2022-11-14T02:42:36.949Z,98189.88
2022-11-14T02:45:22.505Z,98186.41
2022-11-14T02:48:07.806Z,98182.91
2022-11-14T02:50:53.000Z,98181.19
2022-11-14T02:53:38.239Z,98176.88
2022-11-14T02:56:23.856Z,98178.47
2022-11-14T02:59:09.301Z,98171.28
2022-11-14T03:01:54.607Z,98170.28
2022-11-14T03:04:40.021Z,98165.88
2022-11-14T03:07:25.528Z,98164.13
2022-11-14T03:10:11.195Z,98161.56
2022-11-14T03:12:56.792Z,98157.22
2022-11-14T03:15:42.459Z,98153.59
2022-11-14T03:18:28.606Z,98146.63
2022-11-14T03:21:17.646Z,98142.22
2022-11-14T03:24:03.271Z,98138.75
2022-11-14T03:26:48.629Z,98135.16
2022-11-14T03:29:33.899Z,98137.09
2022-11-14T03:32:19.264Z,98130.03
2022-11-14T03:35:04.730Z,98135.97
2022-11-14T03:37:53.854Z,98137.78
2022-11-14T03:40:41.244Z,98131.78
2022-11-14T03:43:30.084Z,98132.00
2022-11-14T03:46:17.954Z,98129.41
2022-11-14T03:49:06.504Z,98133.75
2022-11-14T03:51:51.729Z,98136.28
2022-11-14T03:54:36.972Z,98136.53
2022-11-14T03:57:22.329Z,98139.22
2022-11-14T04:00:09.435Z,98132.25
2022-11-14T04:02:55.971Z,98132.25
2022-11-14T04:05:45.038Z,98125.19
2022-11-14T04:08:30.544Z,98121.59
2022-11-14T04:11:16.160Z,98117.09
2022-11-14T04:14:01.790Z,98111.84
2022-11-14T04:16:47.188Z,98107.69
2022-11-14T04:19:32.626Z,98103.41
2022-11-14T04:22:18.083Z,98104.22
2022-11-14T04:25:04.174Z,98101.78
2022-11-14T04:27:49.454Z,98103.44
2022-11-14T04:30:35.020Z,98108.63
2022-11-14T04:33:20.748Z,98108.72
2022-11-14T04:36:06.111Z,98102.53
2022-11-14T04:38:51.174Z,98109.56
2022-11-14T04:41:36.663Z,98102.44
2022-11-14T04:44:21.981Z,98100.66
2022-11-14T04:47:10.310Z,98101.47
2022-11-14T04:49:55.758Z,98094.28
2022-11-14T04:52:41.032Z,98087.16
2022-11-14T04:55:26.262Z,98085.25
2022-11-14T04:58:11.596Z,98098.47
2022-11-14T05:01:00.223Z,98097.59
2022-11-14T05:03:48.465Z,98089.03
2022-11-14T05:06:33.646Z,98087.16
2022-11-14T05:09:19.195Z,98077.38
2022-11-14T05:12:04.706Z,98079.13
2022-11-14T05:14:50.065Z,98070.22
2022-11-14T05:17:35.243Z,98071.97
2022-11-14T05:20:20.523Z,98065.78
2022-11-14T05:23:06.064Z,98064.69
2022-11-14T05:26:02.246Z,98073.53
2022-11-14T05:28:47.600Z,98061.31
2022-11-14T05:31:32.925Z,98057.69
2022-11-14T05:34:17.974Z,98068.34
2022-11-14T05:37:06.360Z,98071.91
2022-11-14T05:39:51.611Z,98071.91
2022-11-14T05:42:36.682Z,98075.41
2022-11-14T05:45:22.114Z,98065.22
2022-11-14T05:48:07.260Z,98065.91
2022-11-14T05:50:56.184Z,98063.28
2022-11-14T05:53:41.870Z,98060.69
2022-11-14T05:56:27.831Z,98058.88
2022-11-14T05:59:13.499Z,98063.00
2022-11-14T06:01:58.756Z,98050.56
2022-11-14T06:04:44.445Z,98049.50
2022-11-14T06:07:29.581Z,98045.81
2022-11-14T06:10:15.153Z,98042.38
2022-11-14T06:13:00.278Z,98038.00
2022-11-14T06:15:46.260Z,98037.34
2022-11-14T06:18:32.846Z,98021.53
2022-11-14T06:21:20.234Z,98019.03
2022-11-14T06:24:05.731Z,98025.19
2022-11-14T06:26:51.111Z,98016.47
2022-11-14T06:29:36.584Z,98016.41
2022-11-14T06:32:21.961Z,98013.72
2022-11-14T06:35:08.465Z,98019.03
2022-11-14T06:37:54.055Z,98017.28
2022-11-14T06:40:39.372Z,98027.75
2022-11-14T06:43:24.481Z,98028.63
2022-11-14T06:46:12.156Z,98028.72
2022-11-14T06:48:57.419Z,98038.34
2022-11-14T06:51:42.660Z,98030.38
2022-11-14T06:54:27.778Z,98032.94
2022-11-14T06:57:12.835Z,98037.22
2022-11-14T06:59:58.229Z,98053.72
2022-11-14T07:02:46.110Z,98053.66
2022-11-14T07:05:31.128Z,98048.44
2022-11-14T07:08:20.851Z,98041.41
2022-11-14T07:11:11.894Z,98043.28
2022-11-14T07:14:00.446Z,98048.53
2022-11-14T07:16:46.866Z,98046.78
2022-11-14T07:19:32.211Z,98044.34
2022-11-14T07:22:17.643Z,98053.13
2022-11-14T07:25:02.973Z,98051.28
2022-11-14T07:27:48.505Z,98045.97
2022-11-14T07:30:34.410Z,98052.84
2022-11-14T07:33:19.668Z,98045.69
2022-11-14T07:36:05.475Z,98055.19
2022-11-14T07:38:50.999Z,98053.44
2022-11-14T07:41:36.615Z,98051.69
2022-11-14T07:44:21.714Z,98044.50
2022-11-14T07:47:07.004Z,98054.09
2022-11-14T07:49:52.202Z,98047.81
2022-11-14T07:52:37.444Z,98041.66
2022-11-14T07:55:23.262Z,98033.81
2022-11-14T07:58:08.621Z,98034.41
2022-11-14T08:00:54.204Z,98043.00
2022-11-14T08:03:45.035Z,98040.25
2022-11-14T08:06:31.160Z,98031.50
2022-11-14T08:09:16.281Z,98026.13
2022-11-14T08:12:02.160Z,98026.13
2022-11-14T08:14:47.181Z,98025.19
2022-11-14T08:17:32.462Z,98036.31
2022-11-14T08:20:17.582Z,98035.34
2022-11-14T08:23:04.799Z,98032.63
2022-11-14T08:25:50.751Z,98035.34
2022-11-14T08:28:36.318Z,98036.34
2022-11-14T08:31:22.140Z,98042.53
2022-11-14T08:34:07.336Z,98048.69
2022-11-14T08:36:52.541Z,98049.31
2022-11-14T08:39:37.655Z,98051.88
2022-11-14T08:42:23.112Z,98046.59
2022-11-14T08:45:08.852Z,98041.31
2022-11-14T08:47:54.330Z,98041.06
2022-11-14T08:50:39.967Z,98050.69
2022-11-14T08:53:25.447Z,98040.94
2022-11-14T08:56:11.597Z,98041.72
2022-11-14T08:58:57.127Z,98043.38
2022-11-14T09:01:42.852Z,98046.97
2022-11-14T09:04:28.578Z,98049.88
2022-11-14T09:07:14.458Z,98056.59
2022-11-14T09:09:59.739Z,98054.00
2022-11-14T09:12:45.185Z,98045.03
2022-11-14T09:15:31.126Z,98051.03
2022-11-14T09:18:16.668Z,98050.13
2022-11-14T09:21:04.248Z,98052.72
2022-11-14T09:23:49.420Z,98044.66
2022-11-14T09:26:34.867Z,98051.81
2022-11-14T09:29:20.630Z,98043.03
2022-11-14T09:32:05.859Z,98046.50
2022-11-14T09:34:52.120Z,98053.56
2022-11-14T09:37:37.174Z,98050.75
2022-11-14T09:40:22.417Z,98050.50
2022-11-14T09:43:24.696Z,98045.00
2022-11-14T09:46:19.698Z,98042.06
2022-11-14T09:49:11.540Z,98045.44
2022-11-14T09:52:24.615Z,98039.97
2022-11-14T09:55:13.599Z,98039.25
2022-11-14T09:58:00.978Z,98041.97
2022-11-14T10:01:34.347Z,98039.47
2022-11-14T10:04:40.863Z,98033.56
2022-11-14T10:07:50.152Z,98033.38
2022-11-14T10:10:51.073Z,98035.75
2022-11-14T10:13:47.625Z,98038.50
2022-11-14T10:16:43.151Z,98034.97
2022-11-14T10:19:39.997Z,98032.63
2022-11-14T10:23:00.088Z,98029.06
2022-11-14T10:25:51.722Z,98028.88
2022-11-14T10:28:50.648Z,98035.75
2022-11-14T10:31:41.726Z,98026.81
2022-11-14T10:35:00.568Z,98027.22
2022-11-14T10:38:12.280Z,98021.66
2022-11-14T10:41:04.798Z,98021.44
2022-11-14T10:43:51.799Z,98022.78
2022-11-14T10:46:42.004Z,98018.09
2022-11-14T10:49:36.012Z,98010.06
2022-11-14T10:52:31.184Z,98013.50
2022-11-14T10:55:18.481Z,98016.19
2022-11-14T10:58:10.395Z,98016.06
2022-11-14T11:00:55.916Z,98006.03
2022-11-14T11:03:43.030Z,98010.78
2022-11-14T11:06:29.316Z,97997.22
2022-11-14T11:09:46.033Z,98004.91
2022-11-14T11:12:37.131Z,98001.28
2022-11-14T11:15:27.924Z,97993.16
2022-11-14T11:18:32.368Z,97987.03
2022-11-14T11:21:20.662Z,97999.31
2022-11-14T11:24:06.401Z,98004.91
2022-11-14T11:27:14.434Z,98004.06
2022-11-14T11:30:19.883Z,98000.44
2022-11-14T11:33:29.999Z,98002.31
2022-11-14T11:36:18.826Z,98014.34
2022-11-14T11:39:04.381Z,98003.66
2022-11-14T11:45:00.302Z,98002.72
2022-11-14T11:47:53.935Z,97997.41
2022-11-14T11:50:40.276Z,97999.19
2022-11-14T11:53:58.364Z,98002.63
2022-11-14T11:56:47.812Z,97993.63
2022-11-14T11:59:45.570Z,97998.81
2022-11-14T12:02:31.498Z,98000.66
2022-11-14T12:05:33.181Z,98015.94
2022-11-14T12:08:47.805Z,98015.88
2022-11-14T12:11:37.406Z,98018.69
2022-11-14T12:15:12.398Z,98014.34
2022-11-14T12:18:16.237Z,98009.28
2022-11-14T12:21:07.103Z,98006.03
2022-11-14T12:23:58.389Z,98006.81
2022-11-14T12:26:58.916Z,98002.41
2022-11-14T12:30:14.143Z,98001.56
2022-11-14T12:33:22.581Z,97993.69
2022-11-14T12:36:12.813Z,97992.53
2022-11-14T12:38:59.610Z,97998.66
2022-11-14T12:41:45.135Z,98002.00
2022-11-14T12:44:30.688Z,98003.44
2022-11-14T12:47:24.305Z,97997.19
2022-11-14T12:50:40.287Z,97993.22
2022-11-14T12:53:37.145Z,97997.19
2022-11-14T12:56:31.186Z,98001.38
2022-11-14T12:59:26.446Z,97996.78
2022-11-14T13:02:43.974Z,98001.03
2022-11-14T13:06:17.451Z,97996.53
2022-11-14T13:09:21.219Z,97990.53
2022-11-14T13:12:45.580Z,97992.97
2022-11-14T13:16:07.075Z,97990.84
2022-11-14T13:19:12.199Z,97996.41
2022-11-14T13:22:35.359Z,97996.34
2022-11-14T13:25:22.658Z,97993.06
2022-11-14T13:28:38.803Z,97995.56
2022-11-14T13:31:41.983Z,97992.78
2022-11-14T13:34:49.312Z,97989.06
2022-11-14T13:37:46.485Z,97994.19
2022-11-14T13:40:44.896Z,97980.09
2022-11-14T13:44:12.042Z,97980.94
2022-11-14T13:47:27.871Z,97976.91
2022-11-14T13:50:18.802Z,97979.78
2022-11-14T13:53:14.480Z,97977.28
2022-11-14T13:56:07.032Z,97970.13
2022-11-14T13:59:16.625Z,97972.69
2022-11-14T14:02:08.308Z,97972.75
2022-11-14T14:05:19.253Z,97973.78
2022-11-14T14:08:16.639Z,97972.31
2022-11-14T14:11:20.829Z,97964.22
2022-11-14T14:14:18.220Z,97965.13
2022-11-14T14:17:21.721Z,97972.03
2022-11-14T14:20:39.768Z,97977.28
2022-11-14T14:23:56.309Z,97971.16
2022-11-14T14:27:16.498Z,97978.84
2022-11-14T14:30:15.562Z,97973.28
2022-11-14T14:33:11.599Z,97974.16
2022-11-14T14:35:57.202Z,97977.59
2022-11-14T14:38:42.551Z,97976.59
2022-11-14T14:41:31.977Z,97971.09
2022-11-14T14:44:25.365Z,97977.19
2022-11-14T14:47:28.939Z,97980.38
2022-11-14T14:50:49.084Z,97977.91
2022-11-14T14:53:35.873Z,97982.50
2022-11-14T14:56:24.901Z,97982.38
2022-11-14T14:59:18.240Z,97982.91
2022-11-14T15:02:08.504Z,97991.69
2022-11-14T15:04:55.351Z,97982.16
2022-11-14T15:07:40.832Z,97985.66
2022-11-14T15:10:30.150Z,97989.41
2022-11-14T15:13:18.045Z,97987.53
2022-11-14T15:16:05.454Z,97983.78
2022-11-14T15:18:52.328Z,97981.09
2022-11-14T15:21:37.482Z,97982.75
2022-11-14T15:24:23.944Z,97983.88
2022-11-14T15:27:15.117Z,97984.66
2022-11-14T15:30:06.865Z,97988.88
2022-11-14T15:32:54.948Z,97985.50
2022-11-14T15:35:40.692Z,97992.44
2022-11-14T15:41:33.385Z,97993.25
2022-11-14T15:44:33.081Z,97994.75
2022-11-14T15:47:29.697Z,97996.56
2022-11-14T15:50:14.722Z,97986.78
2022-11-14T15:53:06.487Z,97993.84
2022-11-14T15:55:51.627Z,98001.00
2022-11-14T15:58:36.758Z,98000.91
2022-11-14T16:01:28.171Z,97998.50
2022-11-14T16:04:21.420Z,97993.31
2022-11-14T16:07:06.726Z,97996.97
2022-11-14T16:09:52.379Z,97999.56
2022-11-14T16:12:37.576Z,97998.88
2022-11-14T16:15:22.666Z,98006.06
2022-11-14T16:18:08.062Z,98002.31
2022-11-14T16:20:58.574Z,98004.06
2022-11-14T16:23:44.072Z,97997.03
2022-11-14T16:26:30.235Z,97997.97
2022-11-14T16:29:16.232Z,97998.13
2022-11-14T16:32:02.989Z,97997.47
2022-11-14T16:34:48.290Z,98015.19
2022-11-14T16:37:33.249Z,98012.66
2022-11-14T16:40:22.901Z,98009.88
2022-11-14T16:43:13.576Z,98009.84
2022-11-14T16:46:03.764Z,98009.84
2022-11-14T16:48:49.170Z,98009.84
2022-11-14T16:51:50.853Z,98015.25
2022-11-14T16:54:36.522Z,98016.22
2022-11-14T16:57:22.050Z,98015.38
2022-11-14T17:00:10.923Z,98027.66
2022-11-14T17:02:56.726Z,98022.25
2022-11-14T17:05:50.549Z,98024.91
2022-11-14T17:08:36.070Z,98024.00
2022-11-14T17:11:21.614Z,98017.66
2022-11-14T17:14:07.012Z,98019.47
2022-11-14T17:16:52.623Z,98021.09
2022-11-14T17:19:45.529Z,98022.84
2022-11-14T17:22:30.789Z,98020.22
2022-11-14T17:25:15.962Z,98012.34
2022-11-14T17:28:01.021Z,98013.25
2022-11-14T17:30:46.185Z,98017.66
2022-11-14T17:33:31.628Z,98019.44
2022-11-14T17:36:18.066Z,98020.38
2022-11-14T17:39:03.692Z,98023.91
2022-11-14T17:41:49.170Z,98017.84
2022-11-14T17:44:34.597Z,98026.50
2022-11-14T17:47:20.623Z,98026.41
2022-11-14T17:50:06.346Z,98024.63
2022-11-14T17:52:51.243Z,98019.06
2022-11-14T17:55:36.738Z,98019.69
2022-11-14T17:58:22.154Z,98019.66
2022-11-14T18:01:12.045Z,98026.75
2022-11-14T18:04:01.659Z,98023.25
2022-11-14T18:06:50.446Z,98020.56
2022-11-14T18:09:35.586Z,98024.25
2022-11-14T18:12:20.656Z,98016.19
2022-11-14T18:15:06.760Z,98020.69
2022-11-14T18:17:52.135Z,98024.28
2022-11-14T18:20:37.956Z,98026.06
2022-11-14T18:23:23.390Z,98022.56
2022-11-14T18:26:13.688Z,98027.69
2022-11-14T18:29:02.492Z,98040.25
2022-11-14T18:31:48.275Z,98038.41
2022-11-14T18:34:36.715Z,98043.59
2022-11-14T18:37:22.454Z,98049.75
2022-11-14T18:40:10.957Z,98045.09
2022-11-14T18:43:02.418Z,98039.72
2022-11-14T18:45:47.512Z,98034.44
2022-11-14T18:48:33.296Z,98033.56
2022-11-14T18:51:21.437Z,98037.16
2022-11-14T18:54:09.252Z,98040.09
2022-11-14T18:56:54.366Z,98040.13
2022-11-14T18:59:39.559Z,98038.28
2022-11-14T19:02:24.950Z,98040.25
2022-11-14T19:05:09.913Z,98042.16
2022-11-14T19:07:55.114Z,98034.94
2022-11-14T19:10:40.357Z,98041.88
2022-11-14T19:13:25.729Z,98039.22
2022-11-14T19:16:10.818Z,98041.88
2022-11-14T19:18:56.016Z,98037.44
2022-11-14T19:21:41.564Z,98027.66
2022-11-14T19:24:27.647Z,98032.72
2022-11-14T19:27:14.709Z,98042.53
2022-11-14T19:30:00.012Z,98038.09
2022-11-14T19:32:46.853Z,98051.34
2022-11-14T19:35:31.923Z,98042.41
2022-11-14T19:38:17.317Z,98047.50
2022-11-14T19:41:12.463Z,98039.50
2022-11-14T19:43:59.196Z,98036.78
2022-11-14T19:46:47.580Z,98038.47
2022-11-14T19:49:33.251Z,98032.34
2022-11-14T20:01:36.776Z,98046.72
2022-11-14T20:04:22.945Z,98052.84
2022-11-14T20:07:08.076Z,98057.19
2022-11-14T20:09:53.287Z,98061.34
2022-11-14T20:12:38.440Z,98060.25
2022-11-14T20:15:24.194Z,98071.63
2022-11-14T20:18:09.680Z,98076.00
2022-11-14T20:20:57.890Z,98076.69
2022-11-14T20:23:43.563Z,98088.06
2022-11-14T20:26:28.864Z,98098.28
2022-11-14T20:29:14.080Z,98083.31
2022-11-14T20:31:59.471Z,98087.69
2022-11-14T20:34:44.656Z,98085.16
2022-11-14T20:37:29.776Z,98082.34
2022-11-14T20:40:15.313Z,98088.28
2022-11-14T20:43:02.502Z,98082.94
2022-11-14T20:46:00.978Z,98087.22
2022-11-14T20:48:47.352Z,98098.59
2022-11-14T20:51:33.360Z,98091.53
2022-11-14T20:54:18.966Z,98077.13
2022-11-14T20:57:04.249Z,98080.94
2022-11-14T20:59:49.617Z,98072.03
2022-11-14T21:02:35.264Z,98074.13
2022-11-14T21:05:20.373Z,98073.19
2022-11-14T21:08:05.816Z,98071.63
2022-11-14T21:10:58.739Z,98074.22
2022-11-14T21:13:56.386Z,98072.59
2022-11-14T21:16:41.582Z,98072.78
2022-11-14T21:19:29.219Z,98070.19
2022-11-14T21:22:15.020Z,98072.06
2022-11-14T21:25:00.564Z,98073.09
2022-11-14T21:27:46.162Z,98067.75
2022-11-14T21:30:32.290Z,98066.91
2022-11-14T21:33:17.607Z,98067.56
2022-11-14T21:36:30.249Z,98062.38
2022-11-14T21:39:16.339Z,98062.25
2022-11-14T21:42:02.198Z,98067.66
2022-11-14T21:44:47.644Z,98058.97
2022-11-14T21:47:34.057Z,98065.09
2022-11-14T21:50:19.203Z,98064.97
2022-11-14T21:53:15.614Z,98061.59
2022-11-14T21:56:19.774Z,98066.03
2022-11-14T21:59:12.644Z,98064.22
2022-11-14T22:02:17.237Z,98065.88
2022-11-14T22:05:02.793Z,98072.28
2022-11-14T22:07:47.816Z,98068.63
2022-11-14T22:10:33.225Z,98066.88
2022-11-14T22:13:18.751Z,98068.38
2022-11-14T22:16:05.507Z,98068.25
2022-11-14T22:18:56.304Z,98071.06
2022-11-14T22:21:43.459Z,98068.50
2022-11-14T22:24:28.581Z,98067.50
2022-11-14T22:27:13.872Z,98057.69
2022-11-14T22:29:58.969Z,98063.84
2022-11-14T22:32:44.326Z,98048.78
2022-11-14T22:35:29.663Z,98046.94
2022-11-14T22:38:15.072Z,98045.16
2022-11-14T22:41:01.741Z,98047.91
2022-11-14T22:43:47.150Z,98042.53
2022-11-14T22:46:32.669Z,98054.09
2022-11-14T22:49:21.059Z,98057.41
2022-11-14T22:52:06.687Z,98053.84
2022-11-14T22:54:51.829Z,98046.00
2022-11-14T22:57:37.297Z,98046.75
2022-11-14T23:00:22.537Z,98044.13
2022-11-14T23:03:07.839Z,98041.34
2022-11-14T23:05:53.158Z,98035.25
2022-11-14T23:08:38.937Z,98033.44
2022-11-14T23:11:27.225Z,98032.44
2022-11-14T23:14:14.133Z,98037.72
2022-11-14T23:16:59.699Z,98032.16
2022-11-14T23:19:45.242Z,98032.34
2022-11-14T23:22:30.365Z,98025.19
2022-11-14T23:25:15.913Z,98033.94
2022-11-14T23:28:01.772Z,98029.31
2022-11-14T23:30:46.902Z,98036.38
2022-11-14T23:33:33.168Z,98029.28
2022-11-14T23:36:18.426Z,98029.31
2022-11-14T23:39:03.961Z,98024.81
2022-11-14T23:41:49.084Z,98028.28
2022-11-14T23:44:34.565Z,98022.00
2022-11-14T23:47:19.582Z,98021.38
2022-11-14T23:50:05.199Z,98021.94
2022-11-14T23:52:50.566Z,98019.16
2022-11-14T23:55:35.952Z,98012.13
2022-11-14T23:58:23.091Z,98015.69
